Time;durP1;ratioP1;P1;durP2;ratioP2;P2;SDS_P1;SDS_P2;PMS_P1;PMS_P2;Temp;Humidity;BMP_temperature;BMP_pressure;BME280_temperature;BME280_humidity;BME280_pressure;Samples;Min_cycle;Max_cycle;Signal;HPM_P1;HPM_P2
2022/10/23 00:02:27;;;;;;;;;;;20.60;53.90;;;;;;8365503;28;19917;-45
2022/10/23 00:06:28;;;;;;;;;;;20.60;53.90;;;;;;8364637;28;19921;-45
2022/10/23 00:10:28;;;;;;;;;;;20.60;54.00;;;;;;8365443;28;19920;-44
2022/10/23 00:14:29;;;;;;;;;;;20.60;53.90;;;;;;8364991;28;19917;-44
2022/10/23 00:18:29;;;;;;;;;;;20.60;53.90;;;;;;8364540;28;19991;-46
2022/10/23 00:22:30;;;;;;;;;;;20.60;54.00;;;;;;8364847;28;19916;-45
2022/10/23 00:26:30;;;;;;;;;;;20.60;53.90;;;;;;8364694;28;19913;-44
2022/10/23 00:30:30;;;;;;;;;;;20.60;53.80;;;;;;8364257;28;19966;-45
2022/10/23 00:34:31;;;;;;;;;;;20.50;53.80;;;;;;8364343;28;19920;-44
2022/10/23 00:38:31;;;;;;;;;;;20.50;54.00;;;;;;8364282;28;20007;-44
2022/10/23 00:42:32;;;;;;;;;;;20.50;54.00;;;;;;8363834;28;19940;-45
2022/10/23 00:46:33;;;;;;;;;;;20.50;53.90;;;;;;8364334;28;19917;-46
2022/10/23 00:50:33;;;;;;;;;;;20.50;54.00;;;;;;8364279;28;19924;-44
2022/10/23 00:54:38;;;;;;;;;;;20.50;54.10;;;;;;8363498;28;20014;-44
2022/10/23 00:58:39;;;;;;;;;;;20.50;53.90;;;;;;8364081;28;19916;-45
2022/10/23 01:02:39;;;;;;;;;;;20.50;54.10;;;;;;8363744;28;19917;-45
2022/10/23 01:06:43;;;;;;;;;;;20.50;54.10;;;;;;8340117;28;19921;-44
2022/10/23 01:10:57;;;;;;;;;;;20.40;54.00;;;;;;8363904;28;19924;-44
2022/10/23 01:14:57;;;;;;;;;;;20.40;53.90;;;;;;8361721;28;20007;-45
2022/10/23 01:19:02;;;;;;;;;;;20.50;54.00;;;;;;8363357;28;19917;-45
2022/10/23 01:23:22;;;;;;;;;;;20.40;54.00;;;;;;8363483;28;19956;-45
2022/10/23 01:27:26;;;;;;;;;;;20.40;54.00;;;;;;8362493;28;19917;-45
2022/10/23 01:31:31;;;;;;;;;;;20.40;53.90;;;;;;8363424;28;20373;-44
2022/10/23 01:35:34;;;;;;;;;;;20.40;54.00;;;;;;8363118;28;19920;-44
2022/10/23 01:39:37;;;;;;;;;;;20.40;53.80;;;;;;8362594;28;19959;-44
2022/10/23 01:43:46;;;;;;;;;;;20.40;53.90;;;;;;8362640;28;19924;-45
2022/10/23 01:47:46;;;;;;;;;;;20.40;53.90;;;;;;8362856;28;20007;-45
2022/10/23 01:51:52;;;;;;;;;;;20.40;53.80;;;;;;8361225;28;19932;-45
2022/10/23 01:55:54;;;;;;;;;;;20.40;53.80;;;;;;8363158;28;19921;-45
2022/10/23 01:59:56;;;;;;;;;;;20.40;53.90;;;;;;8362249;28;19913;-46
2022/10/23 02:03:59;;;;;;;;;;;20.30;53.90;;;;;;8363037;28;20024;-45
2022/10/23 02:08:00;;;;;;;;;;;20.40;54.00;;;;;;8362712;28;19991;-45
2022/10/23 02:12:13;;;;;;;;;;;20.40;54.00;;;;;;8362089;28;19925;-45
2022/10/23 02:16:18;;;;;;;;;;;20.40;53.90;;;;;;8362736;28;20289;-46
2022/10/23 02:20:39;;;;;;;;;;;20.30;54.00;;;;;;8362617;28;19920;-45
2022/10/23 02:24:44;;;;;;;;;;;20.30;54.00;;;;;;8361904;28;19923;-45
2022/10/23 02:28:48;;;;;;;;;;;20.30;53.90;;;;;;8362255;28;19924;-46
2022/10/23 02:32:50;;;;;;;;;;;20.30;54.00;;;;;;8362273;28;20011;-45
2022/10/23 02:36:50;;;;;;;;;;;20.30;53.90;;;;;;8363988;28;19920;-46
2022/10/23 02:40:51;;;;;;;;;;;20.30;54.00;;;;;;8367973;28;19917;-46
2022/10/23 02:44:58;;;;;;;;;;;20.30;54.10;;;;;;8367531;28;19916;-45
2022/10/23 02:49:11;;;;;;;;;;;20.20;53.90;;;;;;8367691;28;20285;-44
2022/10/23 02:53:14;;;;;;;;;;;20.30;53.80;;;;;;8367626;28;19956;-45
2022/10/23 02:57:21;;;;;;;;;;;20.30;53.70;;;;;;8367273;28;19912;-44
2022/10/23 03:01:25;;;;;;;;;;;20.30;53.90;;;;;;8367714;28;20382;-44
2022/10/23 03:05:33;;;;;;;;;;;20.30;54.00;;;;;;8366974;28;19920;-44
2022/10/23 03:09:33;;;;;;;;;;;20.20;53.90;;;;;;8366588;28;19928;-44
2022/10/23 03:13:34;;;;;;;;;;;20.20;53.80;;;;;;8367098;28;19964;-44
2022/10/23 03:17:34;;;;;;;;;;;20.20;53.60;;;;;;8366913;28;19912;-44
2022/10/23 03:21:35;;;;;;;;;;;20.20;53.70;;;;;;8366616;28;19913;-45
2022/10/23 03:25:35;;;;;;;;;;;20.20;53.60;;;;;;8366456;28;19997;-44
2022/10/23 03:29:36;;;;;;;;;;;20.20;53.40;;;;;;8366411;28;19924;-44
2022/10/23 03:33:36;;;;;;;;;;;20.20;53.50;;;;;;8365790;28;19983;-45
2022/10/23 03:37:37;;;;;;;;;;;20.20;53.50;;;;;;8366473;28;20289;-44
2022/10/23 03:41:37;;;;;;;;;;;20.20;53.50;;;;;;8366926;28;19912;-45
2022/10/23 03:45:38;;;;;;;;;;;20.20;53.40;;;;;;8365552;28;19963;-44
2022/10/23 03:49:38;;;;;;;;;;;20.20;53.40;;;;;;8365564;28;19917;-44
2022/10/23 03:53:39;;;;;;;;;;;20.20;53.40;;;;;;8365636;28;20021;-45
2022/10/23 03:57:39;;;;;;;;;;;20.10;53.80;;;;;;8365408;28;19913;-44
2022/10/23 04:01:40;;;;;;;;;;;20.20;53.30;;;;;;8365718;28;19913;-45
2022/10/23 04:05:40;;;;;;;;;;;20.20;53.40;;;;;;8365234;28;19952;-46
2022/10/23 04:09:41;;;;;;;;;;;20.20;53.30;;;;;;8363891;28;20062;-44
2022/10/23 04:13:41;;;;;;;;;;;20.20;53.20;;;;;;8365066;28;19925;-45
2022/10/23 04:17:42;;;;;;;;;;;20.20;53.30;;;;;;8365456;28;19913;-44
2022/10/23 04:21:42;;;;;;;;;;;20.10;53.30;;;;;;8364281;28;19958;-44
2022/10/23 04:25:43;;;;;;;;;;;20.10;53.30;;;;;;8364720;28;19975;-45
2022/10/23 04:29:43;;;;;;;;;;;20.10;53.20;;;;;;8364577;28;20007;-44
2022/10/23 04:33:44;;;;;;;;;;;20.10;53.20;;;;;;8363904;28;20408;-45
2022/10/23 04:37:44;;;;;;;;;;;20.10;53.30;;;;;;8364767;28;19982;-45
2022/10/23 04:41:45;;;;;;;;;;;20.10;53.20;;;;;;8364345;28;19917;-45
2022/10/23 04:45:47;;;;;;;;;;;20.10;53.20;;;;;;8363773;28;19940;-45
2022/10/23 04:49:47;;;;;;;;;;;20.10;53.20;;;;;;8363991;28;20004;-45
2022/10/23 04:53:47;;;;;;;;;;;20.10;53.20;;;;;;8363813;28;19932;-44
2022/10/23 04:57:48;;;;;;;;;;;20.10;53.20;;;;;;8363789;28;20012;-46
2022/10/23 05:01:48;;;;;;;;;;;20.10;53.20;;;;;;8363067;28;19917;-44
2022/10/23 05:05:50;;;;;;;;;;;20.10;53.20;;;;;;8363042;28;19975;-44
2022/10/23 05:09:51;;;;;;;;;;;20.10;53.20;;;;;;8363485;28;19917;-45
2022/10/23 05:13:51;;;;;;;;;;;20.10;53.20;;;;;;8363501;28;19921;-45
2022/10/23 05:17:55;;;;;;;;;;;20.10;53.20;;;;;;8363479;28;19913;-44
2022/10/23 05:21:55;;;;;;;;;;;20.10;53.20;;;;;;8363648;28;19923;-45
2022/10/23 05:25:56;;;;;;;;;;;20.10;53.10;;;;;;8363425;28;19917;-45
2022/10/23 05:29:56;;;;;;;;;;;20.10;53.20;;;;;;8362847;28;19917;-46
2022/10/23 05:33:57;;;;;;;;;;;20.10;53.10;;;;;;8363114;28;19959;-45
2022/10/23 05:37:58;;;;;;;;;;;20.10;53.20;;;;;;8363362;28;19917;-46
2022/10/23 05:41:59;;;;;;;;;;;20.10;53.20;;;;;;8362612;28;20332;-44
2022/10/23 05:46:02;;;;;;;;;;;20.10;53.10;;;;;;8363275;28;19994;-46
2022/10/23 05:50:03;;;;;;;;;;;20.10;53.10;;;;;;8363002;28;20358;-45
2022/10/23 05:54:06;;;;;;;;;;;20.10;53.10;;;;;;8362431;28;19925;-45
2022/10/23 05:58:07;;;;;;;;;;;20.10;53.20;;;;;;8363322;28;20000;-45
2022/10/23 06:02:07;;;;;;;;;;;20.10;53.10;;;;;;8362740;28;19917;-45
2022/10/23 06:06:08;;;;;;;;;;;20.10;53.10;;;;;;8362135;28;19987;-46
2022/10/23 06:10:08;;;;;;;;;;;20.10;53.10;;;;;;8363174;28;20374;-45
2022/10/23 06:14:09;;;;;;;;;;;20.10;53.10;;;;;;8368843;28;19918;-44
2022/10/23 06:18:09;;;;;;;;;;;20.00;53.10;;;;;;8368616;28;19917;-45
2022/10/23 06:22:10;;;;;;;;;;;20.10;53.10;;;;;;8368586;28;20382;-45
2022/10/23 06:26:12;;;;;;;;;;;20.00;53.20;;;;;;8368451;28;19939;-45
2022/10/23 06:30:12;;;;;;;;;;;20.10;53.20;;;;;;8367946;28;19931;-45
2022/10/23 06:34:13;;;;;;;;;;;20.00;53.00;;;;;;8368221;28;19928;-45
2022/10/23 06:38:13;;;;;;;;;;;20.00;53.10;;;;;;8368344;28;19917;-46
2022/10/23 06:42:14;;;;;;;;;;;20.00;53.10;;;;;;8367563;28;19917;-44
2022/10/23 06:46:15;;;;;;;;;;;20.00;53.10;;;;;;8367788;28;19916;-45
2022/10/23 06:50:15;;;;;;;;;;;20.00;53.00;;;;;;8367793;28;19920;-45
2022/10/23 06:54:16;;;;;;;;;;;20.00;53.00;;;;;;8367244;28;19924;-44
2022/10/23 06:58:16;;;;;;;;;;;20.00;53.00;;;;;;8367782;28;19912;-45
2022/10/23 07:02:17;;;;;;;;;;;20.00;53.00;;;;;;8367537;28;19924;-45
2022/10/23 07:06:17;;;;;;;;;;;20.00;53.00;;;;;;8366689;28;20370;-45
2022/10/23 07:10:18;;;;;;;;;;;20.00;53.10;;;;;;8359660;28;19917;-45
2022/10/23 07:14:18;;;;;;;;;;;20.00;53.00;;;;;;8367073;28;19917;-45
2022/10/23 07:18:19;;;;;;;;;;;20.00;53.10;;;;;;8366740;28;19917;-45
2022/10/23 07:22:19;;;;;;;;;;;20.00;53.10;;;;;;8366111;28;19916;-45
2022/10/23 07:26:19;;;;;;;;;;;20.00;53.10;;;;;;8366647;28;19959;-45
2022/10/23 07:30:20;;;;;;;;;;;20.00;53.10;;;;;;8366056;28;20297;-45
2022/10/23 07:34:20;;;;;;;;;;;20.00;53.10;;;;;;8366599;28;19913;-45
2022/10/23 07:38:21;;;;;;;;;;;20.00;53.20;;;;;;8366455;28;19921;-45
2022/10/23 07:42:21;;;;;;;;;;;20.00;53.20;;;;;;8365785;28;19959;-45
2022/10/23 07:46:22;;;;;;;;;;;20.00;53.10;;;;;;8366322;28;19924;-45
2022/10/23 07:50:23;;;;;;;;;;;20.00;53.20;;;;;;8365897;28;20015;-44
2022/10/23 07:54:23;;;;;;;;;;;20.00;53.20;;;;;;8365359;28;20274;-44
2022/10/23 07:58:24;;;;;;;;;;;20.00;53.20;;;;;;8366018;28;19999;-44
2022/10/23 08:02:24;;;;;;;;;;;20.00;53.20;;;;;;8365547;28;20375;-44
2022/10/23 08:06:25;;;;;;;;;;;20.00;53.20;;;;;;8364903;28;19967;-44
2022/10/23 08:10:25;;;;;;;;;;;20.00;53.20;;;;;;8365327;28;19924;-44
2022/10/23 08:14:26;;;;;;;;;;;19.90;53.10;;;;;;8365085;28;19963;-46
2022/10/23 08:18:27;;;;;;;;;;;19.90;53.20;;;;;;8364896;28;20015;-46
2022/10/23 08:22:27;;;;;;;;;;;19.90;53.20;;;;;;8365031;28;20003;-45
2022/10/23 08:26:28;;;;;;;;;;;19.90;53.20;;;;;;8364772;28;19913;-46
2022/10/23 08:30:28;;;;;;;;;;;19.90;53.30;;;;;;8364156;28;19928;-44
2022/10/23 08:34:29;;;;;;;;;;;19.90;53.20;;;;;;8364085;28;20443;-45
2022/10/23 08:38:29;;;;;;;;;;;20.00;53.20;;;;;;8364483;28;20396;-44
2022/10/23 08:42:30;;;;;;;;;;;20.00;53.30;;;;;;8363897;28;20385;-45
2022/10/23 08:46:33;;;;;;;;;;;20.00;53.20;;;;;;8364174;28;20003;-45
2022/10/23 08:50:35;;;;;;;;;;;20.00;53.20;;;;;;8363757;28;19975;-46
2022/10/23 08:54:54;;;;;;;;;;;20.00;53.20;;;;;;8363623;28;19924;-46
2022/10/23 08:58:58;;;;;;;;;;;20.00;53.30;;;;;;8364014;28;19959;-45
2022/10/23 09:03:00;;;;;;;;;;;20.00;53.20;;;;;;8363230;28;19939;-45
2022/10/23 09:07:20;;;;;;;;;;;20.00;53.20;;;;;;8363969;28;20294;-45
2022/10/23 09:11:36;;;;;;;;;;;20.00;53.20;;;;;;8363541;28;19931;-45
2022/10/23 09:15:42;;;;;;;;;;;20.00;53.20;;;;;;8363108;28;19970;-45
2022/10/23 09:19:44;;;;;;;;;;;20.00;53.10;;;;;;8363892;28;20315;-45
2022/10/23 09:23:44;;;;;;;;;;;20.00;53.20;;;;;;8363333;28;19921;-46
2022/10/23 09:27:45;;;;;;;;;;;20.00;53.20;;;;;;8362914;28;19917;-45
2022/10/23 09:31:47;;;;;;;;;;;20.00;53.10;;;;;;8363206;28;19978;-44
2022/10/23 09:36:01;;;;;;;;;;;20.00;53.20;;;;;;8363518;28;19924;-45
2022/10/23 09:40:10;;;;;;;;;;;20.00;53.20;;;;;;8362735;28;19974;-44
2022/10/23 09:44:16;;;;;;;;;;;20.00;53.20;;;;;;8363216;28;20393;-45
2022/10/23 09:48:17;;;;;;;;;;;20.00;53.10;;;;;;8369990;28;19921;-46
2022/10/23 09:52:21;;;;;;;;;;;20.00;53.10;;;;;;8369447;28;19925;-45
2022/10/23 09:56:22;;;;;;;;;;;20.00;53.10;;;;;;8369531;28;19924;-44
2022/10/23 10:00:23;;;;;;;;;;;20.10;53.10;;;;;;8368781;28;20370;-45
2022/10/23 10:04:39;;;;;;;;;;;20.10;53.00;;;;;;8368566;28;19933;-45
2022/10/23 10:08:45;;;;;;;;;;;20.10;53.00;;;;;;8369296;28;19952;-45
2022/10/23 10:12:50;;;;;;;;;;;20.10;53.10;;;;;;8368556;28;20016;-45
2022/10/23 10:16:54;;;;;;;;;;;20.10;53.10;;;;;;8368849;28;19994;-45
2022/10/23 10:20:55;;;;;;;;;;;20.10;53.10;;;;;;8368257;28;20020;-45
2022/10/23 10:25:00;;;;;;;;;;;20.10;53.10;;;;;;8369064;28;19913;-45
2022/10/23 10:29:09;;;;;;;;;;;20.10;53.10;;;;;;8368396;28;19917;-45
2022/10/23 10:33:10;;;;;;;;;;;20.10;53.10;;;;;;8367754;28;19975;-46
2022/10/23 10:37:10;;;;;;;;;;;20.10;53.10;;;;;;8368087;28;19916;-44
2022/10/23 10:41:11;;;;;;;;;;;20.10;53.20;;;;;;8368163;28;19971;-45
2022/10/23 10:45:14;;;;;;;;;;;20.10;53.10;;;;;;8367891;28;19953;-45
2022/10/23 10:49:25;;;;;;;;;;;20.10;53.10;;;;;;8368148;28;19916;-45
2022/10/23 10:53:41;;;;;;;;;;;20.10;53.10;;;;;;8367652;28;19932;-44
2022/10/23 10:57:44;;;;;;;;;;;20.20;53.10;;;;;;8366274;28;19917;-45
2022/10/23 11:01:50;;;;;;;;;;;20.10;53.00;;;;;;8367593;28;19917;-45
2022/10/23 11:05:52;;;;;;;;;;;20.10;52.90;;;;;;8365521;28;19935;-44
2022/10/23 11:09:52;;;;;;;;;;;20.10;53.00;;;;;;8367747;28;20004;-44
2022/10/23 11:13:53;;;;;;;;;;;20.20;53.00;;;;;;8365659;28;19924;-43
2022/10/23 11:17:57;;;;;;;;;;;20.20;53.00;;;;;;8367027;28;19967;-44
2022/10/23 11:22:06;;;;;;;;;;;20.20;53.00;;;;;;8367153;28;20464;-45
2022/10/23 11:26:13;;;;;;;;;;;20.20;53.10;;;;;;8367100;28;19971;-43
2022/10/23 11:30:16;;;;;;;;;;;20.20;53.10;;;;;;8366374;28;20377;-44
2022/10/23 11:34:38;;;;;;;;;;;20.20;53.10;;;;;;8366415;28;19925;-44
2022/10/23 11:38:40;;;;;;;;;;;20.20;53.00;;;;;;8366394;28;19948;-44
2022/10/23 11:42:40;;;;;;;;;;;20.20;53.10;;;;;;8365840;28;20055;-45
2022/10/23 11:46:41;;;;;;;;;;;20.20;53.10;;;;;;8366303;28;19917;-45
2022/10/23 11:50:44;;;;;;;;;;;20.20;53.10;;;;;;8366315;28;19921;-44
2022/10/23 11:54:44;;;;;;;;;;;20.20;53.10;;;;;;8365346;28;20439;-44
2022/10/23 11:58:45;;;;;;;;;;;20.20;53.10;;;;;;8365763;28;19917;-44
2022/10/23 12:02:49;;;;;;;;;;;20.20;53.10;;;;;;8365864;28;19920;-45
2022/10/23 12:06:52;;;;;;;;;;;20.20;53.20;;;;;;8365215;28;19928;-45
2022/10/23 12:10:54;;;;;;;;;;;20.20;53.10;;;;;;8365295;28;19921;-45
2022/10/23 12:15:06;;;;;;;;;;;20.20;53.20;;;;;;8364722;28;19920;-45
2022/10/23 12:19:16;;;;;;;;;;;20.20;53.20;;;;;;8396950;28;20323;-44
2022/10/23 12:23:30;;;;;;;;;;;20.20;53.20;;;;;;8364910;28;19935;-44
2022/10/23 12:27:40;;;;;;;;;;;20.20;53.20;;;;;;8364527;28;20008;-44
2022/10/23 12:31:59;;;;;;;;;;;20.20;53.20;;;;;;8364769;28;19921;-43
2022/10/23 12:36:02;;;;;;;;;;;20.20;53.20;;;;;;8364247;28;20259;-44
2022/10/23 12:40:07;;;;;;;;;;;20.20;53.20;;;;;;8364684;28;19995;-44
2022/10/23 12:44:10;;;;;;;;;;;20.20;53.20;;;;;;8355812;28;20282;-43
2022/10/23 12:48:19;;;;;;;;;;;20.20;53.20;;;;;;8347342;28;19923;-44
2022/10/23 12:52:20;;;;;;;;;;;20.20;53.30;;;;;;8364087;28;20025;-44
2022/10/23 12:56:21;;;;;;;;;;;20.10;53.30;;;;;;8363877;28;19917;-44
2022/10/23 13:00:22;;;;;;;;;;;20.20;53.30;;;;;;8363641;28;19943;-45
2022/10/23 13:04:27;;;;;;;;;;;20.20;53.30;;;;;;8359080;28;19921;-44
2022/10/23 13:08:32;;;;;;;;;;;20.20;53.30;;;;;;8362248;28;20401;-45
2022/10/23 13:12:34;;;;;;;;;;;20.20;53.30;;;;;;8363061;28;20023;-44
2022/10/23 13:16:34;;;;;;;;;;;20.20;53.30;;;;;;8363424;28;19917;-44
2022/10/23 13:20:37;;;;;;;;;;;20.20;53.30;;;;;;8363247;28;19995;-44
2022/10/23 13:24:39;;;;;;;;;;;20.20;53.40;;;;;;8361788;28;19978;-45
2022/10/23 13:28:41;;;;;;;;;;;20.20;53.40;;;;;;8363611;28;19924;-44
2022/10/23 13:32:41;;;;;;;;;;;20.20;53.40;;;;;;8363198;28;19925;-46
2022/10/23 13:36:49;;;;;;;;;;;20.20;53.40;;;;;;8362741;28;19913;-45
2022/10/23 13:40:54;;;;;;;;;;;20.20;53.30;;;;;;8363318;28;19913;-44
2022/10/23 13:44:54;;;;;;;;;;;20.20;53.30;;;;;;8362692;28;19921;-44
2022/10/23 13:48:55;;;;;;;;;;;20.20;53.40;;;;;;8362994;28;20012;-45
2022/10/23 13:52:55;;;;;;;;;;;20.20;53.30;;;;;;8362838;28;19924;-45
2022/10/23 13:56:56;;;;;;;;;;;20.20;53.40;;;;;;8362393;28;19919;-44
2022/10/23 14:00:57;;;;;;;;;;;20.20;53.40;;;;;;8362809;28;19913;-44
2022/10/23 14:04:57;;;;;;;;;;;20.20;53.40;;;;;;8362571;28;19952;-45
2022/10/23 14:08:57;;;;;;;;;;;20.20;53.40;;;;;;8362204;28;19999;-44
2022/10/23 14:12:58;;;;;;;;;;;20.10;53.30;;;;;;8362590;28;20370;-44
2022/10/23 14:16:58;;;;;;;;;;;20.20;53.40;;;;;;8362577;28;19913;-45
2022/10/23 14:21:00;;;;;;;;;;;20.20;53.40;;;;;;8362342;28;20362;-45
2022/10/23 14:25:00;;;;;;;;;;;20.20;53.40;;;;;;8362476;28;19917;-44
2022/10/23 14:29:01;;;;;;;;;;;20.20;53.40;;;;;;8362610;28;19917;-45
2022/10/23 14:33:01;;;;;;;;;;;20.20;53.40;;;;;;8365403;28;19935;-45
2022/10/23 14:37:02;;;;;;;;;;;20.20;53.40;;;;;;8368240;28;19917;-44
2022/10/23 14:41:08;;;;;;;;;;;20.20;53.30;;;;;;8368649;28;19939;-45
2022/10/23 14:45:09;;;;;;;;;;;20.20;53.40;;;;;;8367686;28;20007;-44
2022/10/23 14:49:09;;;;;;;;;;;20.20;53.40;;;;;;8367935;28;20611;-44
2022/10/23 14:53:10;;;;;;;;;;;20.20;53.40;;;;;;8367699;28;19951;-43
2022/10/23 14:57:15;;;;;;;;;;;20.20;53.40;;;;;;8367392;28;19913;-44
2022/10/23 15:01:16;;;;;;;;;;;20.20;53.50;;;;;;8367753;28;19913;-44
2022/10/23 15:05:16;;;;;;;;;;;20.20;53.50;;;;;;8367434;28;19927;-44
2022/10/23 15:09:18;;;;;;;;;;;20.20;53.50;;;;;;8367016;28;19996;-45
2022/10/23 15:13:19;;;;;;;;;;;20.20;53.60;;;;;;8367225;28;19929;-43
2022/10/23 15:17:19;;;;;;;;;;;20.20;53.50;;;;;;8367333;28;19913;-43
2022/10/23 15:21:20;;;;;;;;;;;20.20;53.50;;;;;;8365590;28;19997;-43
2022/10/23 15:25:20;;;;;;;;;;;20.20;53.50;;;;;;8366861;28;19917;-43
2022/10/23 15:29:21;;;;;;;;;;;20.20;53.50;;;;;;8366884;28;20290;-44
2022/10/23 15:33:22;;;;;;;;;;;20.20;53.50;;;;;;8366078;28;19932;-44
2022/10/23 15:37:23;;;;;;;;;;;20.20;53.60;;;;;;8366512;28;19913;-42
2022/10/23 15:41:27;;;;;;;;;;;20.10;53.50;;;;;;8366650;28;19999;-43
2022/10/23 15:45:27;;;;;;;;;;;20.10;53.50;;;;;;8365284;28;19955;-43
2022/10/23 15:49:28;;;;;;;;;;;20.20;53.50;;;;;;8366020;28;19917;-44
2022/10/23 15:53:28;;;;;;;;;;;20.20;53.60;;;;;;8365929;28;19978;-44
2022/10/23 15:57:30;;;;;;;;;;;20.10;53.50;;;;;;8365465;28;19913;-44
2022/10/23 16:01:30;;;;;;;;;;;20.10;53.60;;;;;;8366065;28;19956;-43
2022/10/23 16:05:31;;;;;;;;;;;20.10;53.50;;;;;;8365533;28;20374;-43
2022/10/23 16:09:31;;;;;;;;;;;20.10;53.60;;;;;;8365000;28;19924;-44
2022/10/23 16:13:32;;;;;;;;;;;20.10;53.60;;;;;;8363991;28;19924;-43
2022/10/23 16:17:32;;;;;;;;;;;20.10;53.70;;;;;;8365568;28;19917;-45
2022/10/23 16:21:34;;;;;;;;;;;20.10;53.70;;;;;;8364549;28;20374;-43
2022/10/23 16:25:35;;;;;;;;;;;20.10;53.70;;;;;;8364998;28;20308;-43
2022/10/23 16:29:35;;;;;;;;;;;20.10;53.60;;;;;;8364839;28;19917;-45
2022/10/23 16:33:36;;;;;;;;;;;20.10;53.70;;;;;;8364291;28;20381;-44
2022/10/23 16:37:36;;;;;;;;;;;20.10;53.70;;;;;;8364770;28;19913;-43
2022/10/23 16:41:37;;;;;;;;;;;20.10;53.70;;;;;;8364384;28;19917;-43
2022/10/23 16:45:37;;;;;;;;;;;20.10;53.60;;;;;;8340139;28;19917;-44
2022/10/23 16:49:38;;;;;;;;;;;20.10;53.70;;;;;;8331200;28;19917;-44
2022/10/23 16:53:39;;;;;;;;;;;20.10;53.70;;;;;;8331018;28;19925;-45
2022/10/23 16:57:39;;;;;;;;;;;20.10;53.70;;;;;;8329985;28;20006;-46
2022/10/23 17:01:40;;;;;;;;;;;20.10;53.70;;;;;;8330783;28;19925;-45
2022/10/23 17:05:40;;;;;;;;;;;20.10;53.70;;;;;;8330644;28;19921;-46
2022/10/23 17:09:42;;;;;;;;;;;20.10;53.70;;;;;;8330210;28;19917;-44
2022/10/23 17:13:45;;;;;;;;;;;20.10;53.70;;;;;;8330891;28;19929;-44
2022/10/23 17:17:45;;;;;;;;;;;20.10;53.70;;;;;;8330719;28;20004;-45
2022/10/23 17:21:46;;;;;;;;;;;20.10;53.70;;;;;;8329963;28;20294;-44
2022/10/23 17:25:48;;;;;;;;;;;20.10;53.70;;;;;;8330302;28;19917;-45
2022/10/23 17:29:48;;;;;;;;;;;20.10;53.70;;;;;;8330281;28;19918;-44
2022/10/23 17:33:50;;;;;;;;;;;20.10;53.50;;;;;;8330136;28;19925;-46
2022/10/23 17:37:51;;;;;;;;;;;20.10;53.70;;;;;;8330453;28;19913;-44
2022/10/23 17:41:51;;;;;;;;;;;20.10;53.70;;;;;;8329736;28;20341;-44
2022/10/23 17:45:52;;;;;;;;;;;20.10;53.70;;;;;;8330315;28;20339;-44
2022/10/23 17:49:52;;;;;;;;;;;20.10;53.70;;;;;;8330188;28;19917;-44
2022/10/23 17:53:54;;;;;;;;;;;20.10;53.70;;;;;;8329552;28;19999;-45
2022/10/23 17:57:54;;;;;;;;;;;20.10;53.70;;;;;;8329976;28;19921;-44
2022/10/23 18:01:57;;;;;;;;;;;20.10;53.70;;;;;;8329684;28;19925;-44
2022/10/23 18:06:04;;;;;;;;;;;20.10;53.70;;;;;;8329595;28;20363;-46
2022/10/23 18:10:04;;;;;;;;;;;20.10;54.20;;;;;;8336479;28;20128;-45
2022/10/23 18:14:05;;;;;;;;;;;20.10;53.70;;;;;;8335800;28;19936;-45
2022/10/23 18:18:06;;;;;;;;;;;20.10;53.80;;;;;;8335754;28;19960;-44
2022/10/23 18:22:07;;;;;;;;;;;20.10;53.80;;;;;;8335636;28;19917;-45
2022/10/23 18:26:14;;;;;;;;;;;20.10;53.80;;;;;;8335652;28;19923;-44
2022/10/23 18:30:15;;;;;;;;;;;20.10;53.80;;;;;;8335072;28;19917;-45
2022/10/23 18:34:20;;;;;;;;;;;20.10;53.80;;;;;;8335158;28;19932;-45
2022/10/23 18:38:21;;;;;;;;;;;20.00;53.80;;;;;;8335645;28;20374;-45
2022/10/23 18:42:21;;;;;;;;;;;20.00;53.80;;;;;;8334694;28;19956;-46
2022/10/23 18:46:21;;;;;;;;;;;20.10;53.90;;;;;;8335054;28;20012;-45
2022/10/23 18:50:22;;;;;;;;;;;20.10;53.80;;;;;;8334849;28;19917;-45
2022/10/23 18:54:22;;;;;;;;;;;20.10;53.80;;;;;;8334337;28;20396;-45
2022/10/23 18:58:23;;;;;;;;;;;20.10;53.90;;;;;;8334772;28;19913;-44
2022/10/23 19:02:23;;;;;;;;;;;20.10;53.80;;;;;;8334488;28;19917;-44
2022/10/23 19:06:24;;;;;;;;;;;20.10;53.80;;;;;;8333806;28;20336;-44
2022/10/23 19:10:27;;;;;;;;;;;20.10;53.80;;;;;;8334068;28;19928;-44
2022/10/23 19:14:28;;;;;;;;;;;20.10;53.80;;;;;;8340090;28;19924;-44
2022/10/23 19:18:30;;;;;;;;;;;20.10;53.80;;;;;;8365885;28;19917;-45
2022/10/23 19:22:33;;;;;;;;;;;20.10;53.90;;;;;;8366962;28;19925;-44
2022/10/23 19:26:34;;;;;;;;;;;20.10;53.90;;;;;;8366828;28;19912;-44
2022/10/23 19:30:35;;;;;;;;;;;20.10;53.90;;;;;;8366122;28;19921;-45
2022/10/23 19:34:35;;;;;;;;;;;20.10;54.00;;;;;;8366519;28;19920;-45
2022/10/23 19:38:35;;;;;;;;;;;20.10;54.00;;;;;;8366556;28;19917;-44
2022/10/23 19:42:38;;;;;;;;;;;20.10;54.00;;;;;;8365787;28;19971;-44
2022/10/23 19:46:39;;;;;;;;;;;20.10;54.00;;;;;;8366101;28;19921;-44
2022/10/23 19:50:42;;;;;;;;;;;20.10;54.00;;;;;;8365969;28;19994;-45
2022/10/23 19:54:43;;;;;;;;;;;20.10;54.00;;;;;;8365450;28;20366;-45
2022/10/23 19:58:43;;;;;;;;;;;20.00;54.00;;;;;;8366157;28;19913;-45
2022/10/23 20:02:44;;;;;;;;;;;20.10;54.00;;;;;;8365635;28;19928;-46
2022/10/23 20:06:45;;;;;;;;;;;20.10;53.90;;;;;;8364957;28;19928;-45
2022/10/23 20:10:46;;;;;;;;;;;20.10;53.90;;;;;;8365295;28;19924;-46
2022/10/23 20:14:47;;;;;;;;;;;20.10;53.90;;;;;;8365196;28;20417;-45
2022/10/23 20:18:47;;;;;;;;;;;20.10;53.90;;;;;;8364641;28;19919;-45
2022/10/23 20:22:48;;;;;;;;;;;20.10;54.00;;;;;;8364723;28;19962;-46
2022/10/23 20:26:49;;;;;;;;;;;20.10;53.90;;;;;;8364729;28;20384;-44
2022/10/23 20:30:50;;;;;;;;;;;20.10;54.00;;;;;;8364631;28;19921;-44
2022/10/23 20:34:51;;;;;;;;;;;20.10;54.00;;;;;;8364477;28;20395;-46
2022/10/23 20:38:52;;;;;;;;;;;20.10;54.00;;;;;;8364107;28;19917;-44
2022/10/23 20:42:52;;;;;;;;;;;20.10;54.00;;;;;;8364273;28;19940;-45
2022/10/23 20:46:53;;;;;;;;;;;20.00;54.00;;;;;;8364278;28;20329;-44
2022/10/23 20:50:53;;;;;;;;;;;20.00;54.00;;;;;;8363708;28;20369;-44
2022/10/23 20:54:54;;;;;;;;;;;20.00;54.00;;;;;;8363863;28;19917;-46
2022/10/23 20:58:55;;;;;;;;;;;20.00;53.90;;;;;;8362843;28;19921;-45
2022/10/23 21:02:55;;;;;;;;;;;20.00;54.00;;;;;;8363338;28;19917;-45
2022/10/23 21:06:57;;;;;;;;;;;20.00;54.00;;;;;;8363682;28;19924;-45
2022/10/23 21:10:57;;;;;;;;;;;20.00;54.00;;;;;;8363436;28;19956;-45
2022/10/23 21:14:58;;;;;;;;;;;20.10;54.00;;;;;;8363086;28;20292;-45
2022/10/23 21:18:59;;;;;;;;;;;20.10;54.00;;;;;;8363955;28;19913;-45
2022/10/23 21:22:59;;;;;;;;;;;20.00;54.10;;;;;;8363278;28;19917;-44
2022/10/23 21:27:00;;;;;;;;;;;20.10;54.00;;;;;;8362823;28;19916;-45
2022/10/23 21:31:01;;;;;;;;;;;20.10;54.10;;;;;;8363021;28;19929;-45
2022/10/23 21:35:02;;;;;;;;;;;20.00;54.10;;;;;;8363044;28;19987;-45
2022/10/23 21:39:02;;;;;;;;;;;20.10;54.10;;;;;;8362869;28;19917;-45
2022/10/23 21:43:03;;;;;;;;;;;20.00;54.10;;;;;;8367331;28;20004;-46
2022/10/23 21:47:03;;;;;;;;;;;20.00;54.10;;;;;;8369823;28;20042;-45
2022/10/23 21:51:04;;;;;;;;;;;20.00;54.00;;;;;;8368975;28;19974;-44
2022/10/23 21:55:05;;;;;;;;;;;20.00;54.10;;;;;;8369462;28;19916;-45
2022/10/23 21:59:08;;;;;;;;;;;20.00;54.00;;;;;;8369687;28;20370;-44
2022/10/23 22:03:08;;;;;;;;;;;20.10;54.20;;;;;;8366786;28;20011;-46
2022/10/23 22:07:13;;;;;;;;;;;20.00;54.20;;;;;;8369466;28;19917;-45
2022/10/23 22:11:14;;;;;;;;;;;20.10;54.20;;;;;;8368909;28;19924;-44
2022/10/23 22:15:14;;;;;;;;;;;20.00;54.20;;;;;;8368558;28;19913;-44
2022/10/23 22:19:16;;;;;;;;;;;20.00;54.10;;;;;;8369025;28;19924;-45
2022/10/23 22:23:16;;;;;;;;;;;20.00;54.10;;;;;;8368611;28;19952;-45
2022/10/23 22:27:17;;;;;;;;;;;20.00;54.30;;;;;;8368068;28;19924;-45
2022/10/23 22:31:19;;;;;;;;;;;20.00;54.30;;;;;;8368422;28;20392;-44
2022/10/23 22:35:19;;;;;;;;;;;20.00;54.20;;;;;;8368186;28;19912;-44
2022/10/23 22:39:20;;;;;;;;;;;20.00;54.30;;;;;;8367828;28;19920;-44
2022/10/23 22:43:21;;;;;;;;;;;20.00;54.20;;;;;;8367965;28;20230;-45
2022/10/23 22:47:21;;;;;;;;;;;20.00;54.30;;;;;;8368139;28;19924;-45
2022/10/23 22:51:23;;;;;;;;;;;20.00;54.40;;;;;;8367213;28;19924;-45
2022/10/23 22:55:24;;;;;;;;;;;20.00;54.30;;;;;;8366627;28;19913;-44
2022/10/23 22:59:24;;;;;;;;;;;20.00;54.20;;;;;;8367811;28;19967;-45
2022/10/23 23:03:25;;;;;;;;;;;20.00;54.30;;;;;;8366853;28;19931;-45
2022/10/23 23:07:25;;;;;;;;;;;20.00;54.30;;;;;;8367401;28;19921;-46
2022/10/23 23:11:26;;;;;;;;;;;20.00;54.30;;;;;;8367092;28;20360;-44
2022/10/23 23:15:27;;;;;;;;;;;20.00;54.40;;;;;;8366577;28;19917;-45
2022/10/23 23:19:28;;;;;;;;;;;20.00;54.30;;;;;;8367210;28;19924;-45
2022/10/23 23:23:28;;;;;;;;;;;20.00;54.30;;;;;;8366940;28;19917;-45
2022/10/23 23:27:29;;;;;;;;;;;20.00;54.40;;;;;;8366343;28;20377;-45